Terminal Aerodrome Forecast
Issued by NWS

Current Version | Previous Version | Text Only | Print | Product List | Glossary On
Versions: 1 2 3 4 5 6 7 8 9 10 11 12 13 14 15 16 17 18 19 20 21 22 23 24 25 26 27 28
309
FTUS41 KBTV 092331
TAFSLK
TAF
KSLK 092331Z 1000/1024 VRB04KT P6SM VCSH BKN025
      TEMPO 1000/1004 2SM -SN BR OVC015
     FM100400 VRB04KT P6SM VCSH OVC030
     FM101600 26004KT P6SM VCSH OVC025=

USA.gov is the U.S. government's official web portal to all federal, state and local government web resources and services.